Airfield :
LOGIN :

Register | Disclaimer

   EN    FR    IT 

 










Legend :    VFR   Marginal VFR   IFR   Intensive IFR   Very Intensive IFR
Visi :
Ceiling :
>= 8 km
>= 3000ft
5 to 8 km
1000 to 3000 ft
1500m to 5 km
500 to 1000 ft
800 to 1500m
200 to 500 ft
< 800m
< 200 ft
Symbols :   Thunderstorms  Fog  Heavy snow  Heavy precipitations  Wind > 20 kt
SIGMETs :     Misc.  Thunderstorms  Icing  Turbulence  Mountain Waves  Volcanic Ashes






- Airport Elevation : 203 ft
- IATA code : XMJ


LFBM - Mont-De-Marsan

CURRENT METAR :
  • 141200Z AUTO VRB04KT CAVOK 24/14 Q1012 BECMG 4000 SHRA SCT012 SCT030TCU BKN040

EXPIRED METARs :
  • 141130Z AUTO VRB03KT CAVOK 24/13 Q1013 BECMG 4000 SHRA SCT012 SCT030TCU BKN040
  • 141100Z AUTO VRB02KT CAVOK 23/13 Q1013 TEMPO SHRA SCT030TCU
  • 141030Z AUTO VRB03KT CAVOK 23/13 Q1013 TEMPO SHRA SCT030TCU
  • 141000Z AUTO 18005KT 140V240 CAVOK 22/12 Q1014 TEMPO SHRA SCT030TCU
  • 140930Z AUTO 18004KT 120V230 CAVOK 22/12 Q1014 TEMPO SHRA SCT030TCU
  • 140900Z AUTO 17005KT 130V200 CAVOK 22/13 Q1014 NOSIG
  • 140830Z AUTO 20005KT 150V230 CAVOK 21/13 Q1014 NOSIG
  • 140800Z AUTO 18004KT 130V240 CAVOK 19/14 Q1014 NOSIG
  • 140730Z AUTO 17004KT 140V200 CAVOK 18/14 Q1014 NOSIG

TAF TAF LFBM
Valid from the 14 at 09:00 until the 15 at 09:00 UTC


140800Z 1409/1509 25005KT 9999 SCT035 SCT080
TEMPO 1411/1413 SHRA SCT030TCU
BECMG 1413/1414 4000 SHRA SCT012 SCT030TCU BKN040
BECMG 1420/1422 9999 NSW SCT020
TEMPO 1503/1508 SHRA SCT020TCU



MET'MAP, your aeronautical weather chart ! - Copyright ORBIFLY December 2007 - Disclaimer

ORBIFLY MET'MAP TEAM :

Programming & Development : Alexandra Zaïnal
Original concept : Baudouin d'Aumeries
Technical & hardware support : Manuel Goepfert
Assistance : Marc-Olivier Méhu




SOURCES & CREDITS :

   NOAA